sensor_id;sensor_type;location;lat;lon;timestamp;P1;durP1;ratioP1;P2;durP2;ratioP2
63114;SDS011;49208;50.874;6.466;2022-09-30T05:03:08;10.93;;;6.15;;
63114;SDS011;49208;50.874;6.466;2022-09-30T05:05:34;10.68;;;5.68;;
63114;SDS011;49208;50.874;6.466;2022-09-30T05:08:03;9.95;;;5.47;;
63114;SDS011;49208;50.874;6.466;2022-09-30T05:10:29;10.55;;;6.47;;
63114;SDS011;49208;50.874;6.466;2022-09-30T05:12:55;10.73;;;5.70;;
63114;SDS011;49208;50.874;6.466;2022-09-30T05:15:22;12.37;;;7.17;;
63114;SDS011;49208;50.874;6.466;2022-09-30T05:17:48;10.85;;;6.30;;
63114;SDS011;49208;50.874;6.466;2022-09-30T05:20:13;11.95;;;6.22;;
63114;SDS011;49208;50.874;6.466;2022-09-30T05:22:39;10.00;;;5.80;;
63114;SDS011;49208;50.874;6.466;2022-09-30T05:25:04;11.43;;;5.80;;
63114;SDS011;49208;50.874;6.466;2022-09-30T05:27:30;10.45;;;5.10;;
63114;SDS011;49208;50.874;6.466;2022-09-30T05:29:56;8.75;;;5.25;;
63114;SDS011;49208;50.874;6.466;2022-09-30T05:32:22;8.82;;;4.90;;
63114;SDS011;49208;50.874;6.466;2022-09-30T05:34:48;10.82;;;5.78;;
63114;SDS011;49208;50.874;6.466;2022-09-30T05:37:14;9.07;;;5.13;;
63114;SDS011;49208;50.874;6.466;2022-09-30T05:39:39;11.05;;;5.68;;
63114;SDS011;49208;50.874;6.466;2022-09-30T05:42:05;9.70;;;6.18;;
63114;SDS011;49208;50.874;6.466;2022-09-30T05:44:30;8.75;;;5.97;;
63114;SDS011;49208;50.874;6.466;2022-09-30T05:46:55;10.85;;;5.30;;
63114;SDS011;49208;50.874;6.466;2022-09-30T05:49:22;9.27;;;5.57;;
63114;SDS011;49208;50.874;6.466;2022-09-30T05:51:47;12.70;;;6.07;;
63114;SDS011;49208;50.874;6.466;2022-09-30T05:54:13;10.48;;;6.00;;
63114;SDS011;49208;50.874;6.466;2022-09-30T05:56:38;11.30;;;6.38;;
63114;SDS011;49208;50.874;6.466;2022-09-30T05:59:04;11.57;;;6.20;;
63114;SDS011;49208;50.874;6.466;2022-09-30T06:01:30;11.27;;;6.47;;
63114;SDS011;49208;50.874;6.466;2022-09-30T06:03:56;10.48;;;6.65;;
63114;SDS011;49208;50.874;6.466;2022-09-30T06:06:21;13.43;;;6.95;;
63114;SDS011;49208;50.874;6.466;2022-09-30T06:08:47;12.23;;;6.03;;
63114;SDS011;49208;50.874;6.466;2022-09-30T06:11:17;11.00;;;6.65;;
63114;SDS011;49208;50.874;6.466;2022-09-30T06:13:44;13.63;;;7.35;;
63114;SDS011;49208;50.874;6.466;2022-09-30T06:18:37;10.05;;;6.25;;
63114;SDS011;49208;50.874;6.466;2022-09-30T06:21:05;9.15;;;6.35;;
63114;SDS011;49208;50.874;6.466;2022-09-30T06:23:31;11.02;;;6.85;;
63114;SDS011;49208;50.874;6.466;2022-09-30T06:26:01;9.18;;;5.68;;
63114;SDS011;49208;50.874;6.466;2022-09-30T06:28:28;8.50;;;5.88;;
63114;SDS011;49208;50.874;6.466;2022-09-30T06:30:53;11.80;;;7.18;;
63114;SDS011;49208;50.874;6.466;2022-09-30T06:33:19;12.07;;;7.55;;
63114;SDS011;49208;50.874;6.466;2022-09-30T06:35:45;10.60;;;7.97;;
63114;SDS011;49208;50.874;6.466;2022-09-30T06:38:12;11.82;;;6.80;;
63114;SDS011;49208;50.874;6.466;2022-09-30T06:40:41;13.77;;;9.35;;
63114;SDS011;49208;50.874;6.466;2022-09-30T06:43:10;12.27;;;8.05;;
63114;SDS011;49208;50.874;6.466;2022-09-30T06:45:36;13.80;;;9.30;;
63114;SDS011;49208;50.874;6.466;2022-09-30T06:48:03;13.18;;;8.50;;
63114;SDS011;49208;50.874;6.466;2022-09-30T06:50:30;14.65;;;8.85;;
63114;SDS011;49208;50.874;6.466;2022-09-30T06:53:00;10.98;;;7.75;;
63114;SDS011;49208;50.874;6.466;2022-09-30T06:55:27;12.98;;;7.60;;
63114;SDS011;49208;50.874;6.466;2022-09-30T06:57:54;10.63;;;6.83;;
63114;SDS011;49208;50.874;6.466;2022-09-30T07:00:21;11.33;;;7.17;;
63114;SDS011;49208;50.874;6.466;2022-09-30T07:02:48;10.82;;;6.95;;
63114;SDS011;49208;50.874;6.466;2022-09-30T07:05:14;9.65;;;6.45;;
63114;SDS011;49208;50.874;6.466;2022-09-30T07:07:40;12.02;;;8.18;;
63114;SDS011;49208;50.874;6.466;2022-09-30T07:10:07;15.02;;;7.82;;
63114;SDS011;49208;50.874;6.466;2022-09-30T07:12:32;10.80;;;7.32;;
63114;SDS011;49208;50.874;6.466;2022-09-30T07:14:58;11.43;;;7.10;;
63114;SDS011;49208;50.874;6.466;2022-09-30T07:17:24;15.93;;;8.80;;
63114;SDS011;49208;50.874;6.466;2022-09-30T07:19:52;13.50;;;9.00;;
63114;SDS011;49208;50.874;6.466;2022-09-30T07:22:18;14.50;;;9.70;;
63114;SDS011;49208;50.874;6.466;2022-09-30T07:24:56;13.60;;;9.65;;
63114;SDS011;49208;50.874;6.466;2022-09-30T07:27:23;13.85;;;10.13;;
63114;SDS011;49208;50.874;6.466;2022-09-30T07:29:50;13.88;;;8.43;;
63114;SDS011;49208;50.874;6.466;2022-09-30T07:32:16;13.05;;;8.00;;
63114;SDS011;49208;50.874;6.466;2022-09-30T07:34:43;7.95;;;5.80;;
63114;SDS011;49208;50.874;6.466;2022-09-30T07:37:09;10.77;;;5.47;;
63114;SDS011;49208;50.874;6.466;2022-09-30T07:39:38;9.05;;;5.13;;
63114;SDS011;49208;50.874;6.466;2022-09-30T07:42:04;8.35;;;5.53;;
63114;SDS011;49208;50.874;6.466;2022-09-30T07:44:30;9.48;;;5.15;;
63114;SDS011;49208;50.874;6.466;2022-09-30T07:46:56;8.75;;;4.97;;
63114;SDS011;49208;50.874;6.466;2022-09-30T07:49:22;7.18;;;5.28;;
63114;SDS011;49208;50.874;6.466;2022-09-30T07:51:51;8.57;;;4.90;;
63114;SDS011;49208;50.874;6.466;2022-09-30T07:54:20;5.80;;;4.13;;
63114;SDS011;49208;50.874;6.466;2022-09-30T07:56:47;7.32;;;4.47;;
63114;SDS011;49208;50.874;6.466;2022-09-30T07:59:13;10.15;;;4.53;;
63114;SDS011;49208;50.874;6.466;2022-09-30T08:01:39;7.43;;;4.00;;
63114;SDS011;49208;50.874;6.466;2022-09-30T08:04:07;9.73;;;4.45;;
63114;SDS011;49208;50.874;6.466;2022-09-30T08:06:38;8.38;;;4.03;;
63114;SDS011;49208;50.874;6.466;2022-09-30T08:09:09;7.25;;;4.70;;
63114;SDS011;49208;50.874;6.466;2022-09-30T08:11:35;7.55;;;4.18;;
63114;SDS011;49208;50.874;6.466;2022-09-30T08:14:02;11.38;;;5.53;;
63114;SDS011;49208;50.874;6.466;2022-09-30T08:16:28;10.38;;;4.82;;
63114;SDS011;49208;50.874;6.466;2022-09-30T08:19:00;7.47;;;4.53;;
63114;SDS011;49208;50.874;6.466;2022-09-30T08:21:26;9.50;;;5.90;;
63114;SDS011;49208;50.874;6.466;2022-09-30T08:23:52;7.33;;;4.97;;
63114;SDS011;49208;50.874;6.466;2022-09-30T08:26:18;8.60;;;5.07;;
63114;SDS011;49208;50.874;6.466;2022-09-30T08:28:44;8.93;;;4.93;;
63114;SDS011;49208;50.874;6.466;2022-09-30T08:31:13;7.65;;;5.57;;
63114;SDS011;49208;50.874;6.466;2022-09-30T08:33:40;9.48;;;5.93;;
63114;SDS011;49208;50.874;6.466;2022-09-30T08:36:07;7.70;;;4.82;;
63114;SDS011;49208;50.874;6.466;2022-09-30T08:38:35;9.05;;;5.95;;
63114;SDS011;49208;50.874;6.466;2022-09-30T08:43:57;9.15;;;5.78;;
63114;SDS011;49208;50.874;6.466;2022-09-30T08:52:44;9.13;;;5.30;;
63114;SDS011;49208;50.874;6.466;2022-09-30T08:55:22;10.10;;;5.97;;
63114;SDS011;49208;50.874;6.466;2022-09-30T08:57:51;9.95;;;6.10;;
63114;SDS011;49208;50.874;6.466;2022-09-30T09:00:19;9.00;;;5.95;;
63114;SDS011;49208;50.874;6.466;2022-09-30T09:02:52;10.93;;;6.03;;
63114;SDS011;49208;50.874;6.466;2022-09-30T09:05:23;9.95;;;6.35;;
63114;SDS011;49208;50.874;6.466;2022-09-30T09:08:10;8.63;;;6.22;;
63114;SDS011;49208;50.874;6.466;2022-09-30T09:10:44;10.70;;;6.40;;
63114;SDS011;49208;50.874;6.466;2022-09-30T09:13:18;10.02;;;6.55;;
63114;SDS011;49208;50.874;6.466;2022-09-30T09:19:09;13.10;;;5.70;;
63114;SDS011;49208;50.874;6.466;2022-09-30T09:24:14;8.75;;;5.47;;
63114;SDS011;49208;50.874;6.466;2022-09-30T09:26:43;10.02;;;5.63;;
63114;SDS011;49208;50.874;6.466;2022-09-30T09:31:46;9.82;;;6.72;;
63114;SDS011;49208;50.874;6.466;2022-09-30T09:34:12;9.52;;;6.50;;
63114;SDS011;49208;50.874;6.466;2022-09-30T09:36:51;9.35;;;5.88;;
63114;SDS011;49208;50.874;6.466;2022-09-30T09:40:02;13.73;;;6.80;;
63114;SDS011;49208;50.874;6.466;2022-09-30T09:45:45;9.38;;;6.38;;
63114;SDS011;49208;50.874;6.466;2022-09-30T09:48:20;8.23;;;5.97;;
63114;SDS011;49208;50.874;6.466;2022-09-30T09:50:50;11.07;;;6.45;;
63114;SDS011;49208;50.874;6.466;2022-09-30T09:53:47;9.75;;;6.40;;
63114;SDS011;49208;50.874;6.466;2022-09-30T09:56:20;8.05;;;5.40;;
63114;SDS011;49208;50.874;6.466;2022-09-30T10:04:14;7.97;;;4.82;;
63114;SDS011;49208;50.874;6.466;2022-09-30T10:09:29;7.80;;;5.38;;
63114;SDS011;49208;50.874;6.466;2022-09-30T10:14:29;10.95;;;5.10;;
63114;SDS011;49208;50.874;6.466;2022-09-30T10:16:58;8.98;;;5.43;;
63114;SDS011;49208;50.874;6.466;2022-09-30T10:19:25;9.43;;;4.45;;
63114;SDS011;49208;50.874;6.466;2022-09-30T10:24:36;8.93;;;5.70;;
63114;SDS011;49208;50.874;6.466;2022-09-30T10:27:02;8.60;;;4.57;;
63114;SDS011;49208;50.874;6.466;2022-09-30T10:32:00;7.88;;;4.80;;
63114;SDS011;49208;50.874;6.466;2022-09-30T10:34:28;7.95;;;4.63;;
63114;SDS011;49208;50.874;6.466;2022-09-30T10:36:57;8.15;;;5.15;;
63114;SDS011;49208;50.874;6.466;2022-09-30T10:39:29;6.88;;;4.32;;
63114;SDS011;49208;50.874;6.466;2022-09-30T10:42:20;8.60;;;5.68;;
63114;SDS011;49208;50.874;6.466;2022-09-30T10:44:48;9.10;;;5.00;;
63114;SDS011;49208;50.874;6.466;2022-09-30T10:47:23;4.82;;;3.20;;
63114;SDS011;49208;50.874;6.466;2022-09-30T10:49:53;7.03;;;3.28;;
63114;SDS011;49208;50.874;6.466;2022-09-30T10:52:28;8.15;;;3.65;;
63114;SDS011;49208;50.874;6.466;2022-09-30T10:55:07;6.10;;;3.58;;
63114;SDS011;49208;50.874;6.466;2022-09-30T11:00:18;7.18;;;2.78;;
63114;SDS011;49208;50.874;6.466;2022-09-30T11:05:42;6.68;;;3.60;;
63114;SDS011;49208;50.874;6.466;2022-09-30T11:08:12;5.65;;;3.53;;
63114;SDS011;49208;50.874;6.466;2022-09-30T11:14:06;6.80;;;2.83;;
63114;SDS011;49208;50.874;6.466;2022-09-30T11:16:46;8.02;;;2.63;;
63114;SDS011;49208;50.874;6.466;2022-09-30T11:21:50;5.40;;;3.10;;
63114;SDS011;49208;50.874;6.466;2022-09-30T11:24:46;5.95;;;3.58;;
63114;SDS011;49208;50.874;6.466;2022-09-30T11:51:31;5.45;;;2.42;;
63114;SDS011;49208;50.874;6.466;2022-09-30T11:59:24;4.75;;;2.80;;
63114;SDS011;49208;50.874;6.466;2022-09-30T12:01:52;5.57;;;3.38;;
63114;SDS011;49208;50.874;6.466;2022-09-30T12:07:08;5.65;;;2.63;;
63114;SDS011;49208;50.874;6.466;2022-09-30T12:09:41;6.05;;;2.80;;
63114;SDS011;49208;50.874;6.466;2022-09-30T12:12:11;5.57;;;3.08;;
63114;SDS011;49208;50.874;6.466;2022-09-30T12:19:56;6.07;;;3.70;;
63114;SDS011;49208;50.874;6.466;2022-09-30T12:22:30;6.18;;;2.80;;
63114;SDS011;49208;50.874;6.466;2022-09-30T12:24:59;5.13;;;3.53;;
63114;SDS011;49208;50.874;6.466;2022-09-30T12:27:41;4.78;;;3.30;;
63114;SDS011;49208;50.874;6.466;2022-09-30T12:30:13;6.50;;;4.57;;
63114;SDS011;49208;50.874;6.466;2022-09-30T12:33:06;6.07;;;3.38;;
63114;SDS011;49208;50.874;6.466;2022-09-30T12:36:06;6.18;;;3.60;;
63114;SDS011;49208;50.874;6.466;2022-09-30T12:49:24;7.55;;;2.83;;
63114;SDS011;49208;50.874;6.466;2022-09-30T12:51:57;7.22;;;3.38;;
63114;SDS011;49208;50.874;6.466;2022-09-30T12:54:31;5.68;;;3.35;;
63114;SDS011;49208;50.874;6.466;2022-09-30T12:56:58;6.40;;;2.80;;
63114;SDS011;49208;50.874;6.466;2022-09-30T12:59:31;5.50;;;2.70;;
63114;SDS011;49208;50.874;6.466;2022-09-30T13:01:59;4.97;;;3.28;;
63114;SDS011;49208;50.874;6.466;2022-09-30T13:04:32;5.88;;;2.65;;
63114;SDS011;49208;50.874;6.466;2022-09-30T13:07:04;4.50;;;2.35;;
63114;SDS011;49208;50.874;6.466;2022-09-30T13:09:36;3.22;;;1.83;;
63114;SDS011;49208;50.874;6.466;2022-09-30T13:12:26;4.15;;;1.92;;
63114;SDS011;49208;50.874;6.466;2022-09-30T13:17:47;4.40;;;2.40;;
63114;SDS011;49208;50.874;6.466;2022-09-30T13:28:46;4.68;;;1.75;;
63114;SDS011;49208;50.874;6.466;2022-09-30T13:31:16;3.42;;;2.08;;
63114;SDS011;49208;50.874;6.466;2022-09-30T13:36:25;7.15;;;2.20;;
63114;SDS011;49208;50.874;6.466;2022-09-30T13:41:48;3.55;;;2.10;;
63114;SDS011;49208;50.874;6.466;2022-09-30T13:47:18;4.15;;;2.67;;
63114;SDS011;49208;50.874;6.466;2022-09-30T13:49:51;4.00;;;2.53;;
63114;SDS011;49208;50.874;6.466;2022-09-30T13:52:40;3.33;;;2.10;;
63114;SDS011;49208;50.874;6.466;2022-09-30T13:55:08;4.03;;;2.40;;
63114;SDS011;49208;50.874;6.466;2022-09-30T14:03:27;5.57;;;2.05;;
63114;SDS011;49208;50.874;6.466;2022-09-30T14:20:41;4.82;;;1.70;;
63114;SDS011;49208;50.874;6.466;2022-09-30T14:23:23;3.60;;;2.13;;
63114;SDS011;49208;50.874;6.466;2022-09-30T14:28:31;4.78;;;2.20;;
63114;SDS011;49208;50.874;6.466;2022-09-30T14:31:15;3.70;;;2.40;;
63114;SDS011;49208;50.874;6.466;2022-09-30T14:33:41;3.97;;;2.15;;
63114;SDS011;49208;50.874;6.466;2022-09-30T14:36:12;3.38;;;1.98;;
63114;SDS011;49208;50.874;6.466;2022-09-30T14:38:41;4.75;;;2.60;;
63114;SDS011;49208;50.874;6.466;2022-09-30T14:41:13;3.25;;;1.88;;
63114;SDS011;49208;50.874;6.466;2022-09-30T14:43:43;3.92;;;1.77;;
63114;SDS011;49208;50.874;6.466;2022-09-30T14:46:16;4.47;;;1.67;;
63114;SDS011;49208;50.874;6.466;2022-09-30T14:48:58;3.90;;;1.88;;
63114;SDS011;49208;50.874;6.466;2022-09-30T14:51:51;2.72;;;1.40;;
63114;SDS011;49208;50.874;6.466;2022-09-30T14:56:45;3.38;;;1.85;;
63114;SDS011;49208;50.874;6.466;2022-09-30T14:59:18;3.40;;;1.73;;
63114;SDS011;49208;50.874;6.466;2022-09-30T15:02:14;5.40;;;1.70;;
63114;SDS011;49208;50.874;6.466;2022-09-30T15:04:41;4.25;;;1.85;;
63114;SDS011;49208;50.874;6.466;2022-09-30T15:07:13;2.78;;;1.55;;
63114;SDS011;49208;50.874;6.466;2022-09-30T15:09:42;4.97;;;1.40;;
63114;SDS011;49208;50.874;6.466;2022-09-30T15:12:14;3.47;;;1.50;;
63114;SDS011;49208;50.874;6.466;2022-09-30T15:14:55;3.38;;;1.65;;
63114;SDS011;49208;50.874;6.466;2022-09-30T15:19:47;3.20;;;1.63;;
63114;SDS011;49208;50.874;6.466;2022-09-30T15:22:14;5.85;;;2.30;;
63114;SDS011;49208;50.874;6.466;2022-09-30T15:24:41;2.83;;;1.67;;
63114;SDS011;49208;50.874;6.466;2022-09-30T15:27:11;4.10;;;1.30;;
63114;SDS011;49208;50.874;6.466;2022-09-30T15:29:56;4.32;;;2.30;;
63114;SDS011;49208;50.874;6.466;2022-09-30T15:32:24;4.00;;;1.90;;
63114;SDS011;49208;50.874;6.466;2022-09-30T15:34:52;6.35;;;3.33;;
63114;SDS011;49208;50.874;6.466;2022-09-30T15:37:23;4.03;;;2.25;;
63114;SDS011;49208;50.874;6.466;2022-09-30T15:39:53;4.50;;;1.50;;
63114;SDS011;49208;50.874;6.466;2022-09-30T15:48:04;6.60;;;1.60;;
63114;SDS011;49208;50.874;6.466;2022-09-30T15:50:33;2.75;;;1.33;;
63114;SDS011;49208;50.874;6.466;2022-09-30T15:53:16;1.90;;;0.85;;
63114;SDS011;49208;50.874;6.466;2022-09-30T15:55:47;4.20;;;1.50;;
63114;SDS011;49208;50.874;6.466;2022-09-30T15:58:35;2.67;;;1.10;;
63114;SDS011;49208;50.874;6.466;2022-09-30T16:01:10;2.35;;;1.58;;
63114;SDS011;49208;50.874;6.466;2022-09-30T16:03:37;4.35;;;1.50;;
63114;SDS011;49208;50.874;6.466;2022-09-30T16:06:04;1.65;;;1.00;;
63114;SDS011;49208;50.874;6.466;2022-09-30T16:11:08;3.20;;;1.13;;
63114;SDS011;49208;50.874;6.466;2022-09-30T16:13:43;3.10;;;1.02;;
63114;SDS011;49208;50.874;6.466;2022-09-30T16:16:19;2.88;;;1.10;;
63114;SDS011;49208;50.874;6.466;2022-09-30T16:18:48;3.15;;;1.35;;
63114;SDS011;49208;50.874;6.466;2022-09-30T16:24:57;3.72;;;1.48;;
63114;SDS011;49208;50.874;6.466;2022-09-30T16:27:19;2.65;;;1.00;;
63114;SDS011;49208;50.874;6.466;2022-09-30T16:29:50;2.42;;;0.93;;
63114;SDS011;49208;50.874;6.466;2022-09-30T16:32:16;4.32;;;1.42;;
63114;SDS011;49208;50.874;6.466;2022-09-30T16:34:41;1.67;;;0.90;;
63114;SDS011;49208;50.874;6.466;2022-09-30T16:37:10;4.50;;;1.02;;
63114;SDS011;49208;50.874;6.466;2022-09-30T16:39:37;2.22;;;0.80;;
63114;SDS011;49208;50.874;6.466;2022-09-30T16:42:02;2.10;;;0.90;;
63114;SDS011;49208;50.874;6.466;2022-09-30T16:44:28;2.75;;;0.90;;
63114;SDS011;49208;50.874;6.466;2022-09-30T16:47:00;3.72;;;0.85;;
63114;SDS011;49208;50.874;6.466;2022-09-30T16:49:26;8.33;;;1.10;;
63114;SDS011;49208;50.874;6.466;2022-09-30T16:51:52;2.22;;;1.15;;
63114;SDS011;49208;50.874;6.466;2022-09-30T16:54:17;2.95;;;1.30;;
63114;SDS011;49208;50.874;6.466;2022-09-30T16:56:42;2.00;;;1.00;;
63114;SDS011;49208;50.874;6.466;2022-09-30T16:59:12;2.42;;;1.38;;
63114;SDS011;49208;50.874;6.466;2022-09-30T17:01:39;2.30;;;1.10;;
63114;SDS011;49208;50.874;6.466;2022-09-30T17:04:05;2.95;;;1.20;;
63114;SDS011;49208;50.874;6.466;2022-09-30T17:06:31;3.10;;;1.23;;
63114;SDS011;49208;50.874;6.466;2022-09-30T17:08:57;3.78;;;1.40;;
63114;SDS011;49208;50.874;6.466;2022-09-30T17:11:24;2.72;;;1.27;;
63114;SDS011;49208;50.874;6.466;2022-09-30T17:13:53;2.58;;;1.35;;
63114;SDS011;49208;50.874;6.466;2022-09-30T17:16:18;2.90;;;1.65;;
63114;SDS011;49208;50.874;6.466;2022-09-30T17:18:43;3.15;;;1.63;;
63114;SDS011;49208;50.874;6.466;2022-09-30T17:21:09;3.78;;;1.30;;
63114;SDS011;49208;50.874;6.466;2022-09-30T17:23:34;2.88;;;1.67;;
63114;SDS011;49208;50.874;6.466;2022-09-30T17:26:02;3.92;;;1.98;;
63114;SDS011;49208;50.874;6.466;2022-09-30T17:28:28;4.18;;;1.70;;
63114;SDS011;49208;50.874;6.466;2022-09-30T17:30:56;3.90;;;1.45;;
63114;SDS011;49208;50.874;6.466;2022-09-30T17:33:21;4.07;;;1.75;;
63114;SDS011;49208;50.874;6.466;2022-09-30T17:36:00;3.20;;;1.60;;
63114;SDS011;49208;50.874;6.466;2022-09-30T17:38:27;3.63;;;1.95;;
63114;SDS011;49208;50.874;6.466;2022-09-30T17:40:54;3.13;;;1.55;;
63114;SDS011;49208;50.874;6.466;2022-09-30T17:43:38;2.45;;;1.33;;
63114;SDS011;49208;50.874;6.466;2022-09-30T17:46:04;4.43;;;2.08;;
63114;SDS011;49208;50.874;6.466;2022-09-30T17:48:30;5.40;;;2.30;;
63114;SDS011;49208;50.874;6.466;2022-09-30T17:50:56;4.68;;;2.60;;
63114;SDS011;49208;50.874;6.466;2022-09-30T17:53:21;5.18;;;2.70;;
63114;SDS011;49208;50.874;6.466;2022-09-30T17:55:48;4.28;;;2.78;;
63114;SDS011;49208;50.874;6.466;2022-09-30T17:58:25;5.18;;;2.78;;
63114;SDS011;49208;50.874;6.466;2022-09-30T18:00:50;5.47;;;3.80;;
63114;SDS011;49208;50.874;6.466;2022-09-30T18:03:15;4.18;;;2.80;;
63114;SDS011;49208;50.874;6.466;2022-09-30T18:05:41;4.22;;;2.35;;
63114;SDS011;49208;50.874;6.466;2022-09-30T18:08:12;3.50;;;2.42;;
63114;SDS011;49208;50.874;6.466;2022-09-30T18:10:37;4.07;;;2.40;;
63114;SDS011;49208;50.874;6.466;2022-09-30T18:13:03;5.07;;;2.40;;
63114;SDS011;49208;50.874;6.466;2022-09-30T18:15:29;4.65;;;2.30;;
63114;SDS011;49208;50.874;6.466;2022-09-30T18:17:55;3.67;;;2.40;;
63114;SDS011;49208;50.874;6.466;2022-09-30T18:20:20;3.78;;;2.58;;
63114;SDS011;49208;50.874;6.466;2022-09-30T18:22:46;4.47;;;2.17;;
63114;SDS011;49208;50.874;6.466;2022-09-30T18:25:11;4.57;;;2.25;;
63114;SDS011;49208;50.874;6.466;2022-09-30T18:27:47;4.20;;;2.50;;
63114;SDS011;49208;50.874;6.466;2022-09-30T18:30:15;4.88;;;3.13;;
63114;SDS011;49208;50.874;6.466;2022-09-30T18:32:40;5.00;;;3.10;;
63114;SDS011;49208;50.874;6.466;2022-09-30T18:35:06;8.20;;;3.10;;
63114;SDS011;49208;50.874;6.466;2022-09-30T18:37:36;5.72;;;3.40;;
63114;SDS011;49208;50.874;6.466;2022-09-30T18:40:02;4.28;;;2.42;;
63114;SDS011;49208;50.874;6.466;2022-09-30T18:42:27;3.78;;;2.55;;
63114;SDS011;49208;50.874;6.466;2022-09-30T18:44:54;5.07;;;2.92;;
63114;SDS011;49208;50.874;6.466;2022-09-30T18:47:19;4.68;;;2.70;;
63114;SDS011;49208;50.874;6.466;2022-09-30T18:49:45;4.43;;;2.42;;
63114;SDS011;49208;50.874;6.466;2022-09-30T18:52:11;3.50;;;2.10;;
63114;SDS011;49208;50.874;6.466;2022-09-30T18:54:36;5.15;;;2.55;;
63114;SDS011;49208;50.874;6.466;2022-09-30T18:57:02;5.60;;;2.60;;
63114;SDS011;49208;50.874;6.466;2022-09-30T18:59:27;4.60;;;2.30;;
63114;SDS011;49208;50.874;6.466;2022-09-30T19:01:53;4.70;;;2.63;;
63114;SDS011;49208;50.874;6.466;2022-09-30T19:04:19;4.78;;;2.20;;
63114;SDS011;49208;50.874;6.466;2022-09-30T19:06:45;3.17;;;2.15;;
63114;SDS011;49208;50.874;6.466;2022-09-30T19:09:11;3.97;;;2.10;;
63114;SDS011;49208;50.874;6.466;2022-09-30T19:11:37;3.08;;;1.98;;
63114;SDS011;49208;50.874;6.466;2022-09-30T19:14:08;4.40;;;2.03;;
63114;SDS011;49208;50.874;6.466;2022-09-30T19:16:34;4.53;;;2.55;;
63114;SDS011;49208;50.874;6.466;2022-09-30T19:19:01;4.27;;;2.23;;
63114;SDS011;49208;50.874;6.466;2022-09-30T19:24:00;4.40;;;2.00;;
63114;SDS011;49208;50.874;6.466;2022-09-30T19:26:28;5.57;;;2.50;;
63114;SDS011;49208;50.874;6.466;2022-09-30T19:28:54;3.90;;;2.30;;
63114;SDS011;49208;50.874;6.466;2022-09-30T19:31:19;4.53;;;3.28;;
63114;SDS011;49208;50.874;6.466;2022-09-30T19:33:46;8.85;;;4.00;;
63114;SDS011;49208;50.874;6.466;2022-09-30T19:36:13;7.00;;;3.15;;
63114;SDS011;49208;50.874;6.466;2022-09-30T19:38:40;6.15;;;3.10;;
63114;SDS011;49208;50.874;6.466;2022-09-30T19:41:07;9.32;;;4.18;;
63114;SDS011;49208;50.874;6.466;2022-09-30T19:43:33;6.68;;;4.32;;
63114;SDS011;49208;50.874;6.466;2022-09-30T19:46:03;4.72;;;2.95;;
63114;SDS011;49208;50.874;6.466;2022-09-30T19:48:30;5.22;;;2.55;;
63114;SDS011;49208;50.874;6.466;2022-09-30T19:51:06;4.35;;;2.35;;
63114;SDS011;49208;50.874;6.466;2022-09-30T19:53:36;6.30;;;3.80;;
63114;SDS011;49208;50.874;6.466;2022-09-30T19:56:08;7.13;;;3.47;;
63114;SDS011;49208;50.874;6.466;2022-09-30T19:58:39;4.70;;;2.85;;
63114;SDS011;49208;50.874;6.466;2022-09-30T20:01:07;5.07;;;3.28;;
63114;SDS011;49208;50.874;6.466;2022-09-30T20:03:33;6.40;;;3.15;;
63114;SDS011;49208;50.874;6.466;2022-09-30T20:06:00;5.53;;;3.22;;
63114;SDS011;49208;50.874;6.466;2022-09-30T20:08:26;6.10;;;3.47;;
63114;SDS011;49208;50.874;6.466;2022-09-30T20:11:08;8.35;;;3.20;;
63114;SDS011;49208;50.874;6.466;2022-09-30T20:13:38;4.90;;;3.30;;
63114;SDS011;49208;50.874;6.466;2022-09-30T20:16:05;5.32;;;3.00;;
63114;SDS011;49208;50.874;6.466;2022-09-30T20:18:40;6.28;;;3.92;;
63114;SDS011;49208;50.874;6.466;2022-09-30T20:21:09;4.53;;;3.00;;
63114;SDS011;49208;50.874;6.466;2022-09-30T20:23:37;5.72;;;3.28;;
63114;SDS011;49208;50.874;6.466;2022-09-30T20:26:09;5.05;;;3.30;;
63114;SDS011;49208;50.874;6.466;2022-09-30T20:28:39;5.32;;;3.05;;
63114;SDS011;49208;50.874;6.466;2022-09-30T20:31:06;6.00;;;3.30;;
63114;SDS011;49208;50.874;6.466;2022-09-30T20:33:35;7.63;;;4.22;;
63114;SDS011;49208;50.874;6.466;2022-09-30T20:36:04;5.40;;;3.15;;
63114;SDS011;49208;50.874;6.466;2022-09-30T20:38:31;5.38;;;3.15;;
63114;SDS011;49208;50.874;6.466;2022-09-30T20:40:57;5.72;;;3.20;;
63114;SDS011;49208;50.874;6.466;2022-09-30T20:43:24;5.30;;;2.92;;
63114;SDS011;49208;50.874;6.466;2022-09-30T20:45:54;5.45;;;3.30;;
63114;SDS011;49208;50.874;6.466;2022-09-30T20:48:29;9.50;;;3.63;;
63114;SDS011;49208;50.874;6.466;2022-09-30T20:50:59;6.93;;;3.35;;
63114;SDS011;49208;50.874;6.466;2022-09-30T20:53:28;5.95;;;2.83;;
63114;SDS011;49208;50.874;6.466;2022-09-30T20:55:53;6.88;;;3.30;;
63114;SDS011;49208;50.874;6.466;2022-09-30T20:58:18;5.43;;;3.08;;
63114;SDS011;49208;50.874;6.466;2022-09-30T21:00:44;5.88;;;3.70;;
63114;SDS011;49208;50.874;6.466;2022-09-30T21:03:11;5.05;;;3.30;;
63114;SDS011;49208;50.874;6.466;2022-09-30T21:05:37;7.65;;;3.90;;
63114;SDS011;49208;50.874;6.466;2022-09-30T21:08:03;7.47;;;3.92;;
63114;SDS011;49208;50.874;6.466;2022-09-30T21:10:32;6.20;;;3.90;;
63114;SDS011;49208;50.874;6.466;2022-09-30T21:12:58;6.65;;;4.55;;
63114;SDS011;49208;50.874;6.466;2022-09-30T21:15:25;8.33;;;4.40;;
63114;SDS011;49208;50.874;6.466;2022-09-30T21:17:55;8.90;;;4.90;;
63114;SDS011;49208;50.874;6.466;2022-09-30T21:20:21;7.00;;;4.28;;
63114;SDS011;49208;50.874;6.466;2022-09-30T21:22:47;6.32;;;4.35;;
63114;SDS011;49208;50.874;6.466;2022-09-30T21:25:12;6.25;;;4.07;;
63114;SDS011;49208;50.874;6.466;2022-09-30T21:27:38;8.90;;;4.57;;
63114;SDS011;49208;50.874;6.466;2022-09-30T21:30:05;7.25;;;4.25;;
63114;SDS011;49208;50.874;6.466;2022-09-30T21:32:31;7.10;;;4.55;;
63114;SDS011;49208;50.874;6.466;2022-09-30T21:34:58;6.20;;;4.17;;
63114;SDS011;49208;50.874;6.466;2022-09-30T21:37:24;6.22;;;4.15;;
63114;SDS011;49208;50.874;6.466;2022-09-30T21:39:49;5.63;;;3.55;;
63114;SDS011;49208;50.874;6.466;2022-09-30T21:42:15;6.78;;;3.80;;
63114;SDS011;49208;50.874;6.466;2022-09-30T21:44:40;6.75;;;4.20;;
63114;SDS011;49208;50.874;6.466;2022-09-30T21:47:06;7.70;;;3.80;;
63114;SDS011;49208;50.874;6.466;2022-09-30T21:49:31;8.70;;;3.95;;
63114;SDS011;49208;50.874;6.466;2022-09-30T21:51:56;6.28;;;3.88;;
63114;SDS011;49208;50.874;6.466;2022-09-30T21:54:22;6.57;;;4.18;;
63114;SDS011;49208;50.874;6.466;2022-09-30T21:56:48;6.00;;;3.58;;
63114;SDS011;49208;50.874;6.466;2022-09-30T21:59:14;6.85;;;3.72;;
63114;SDS011;49208;50.874;6.466;2022-09-30T22:01:40;6.75;;;3.80;;
63114;SDS011;49208;50.874;6.466;2022-09-30T22:04:05;6.57;;;4.43;;
63114;SDS011;49208;50.874;6.466;2022-09-30T22:06:31;6.65;;;3.58;;
63114;SDS011;49208;50.874;6.466;2022-09-30T22:08:57;5.70;;;3.42;;
63114;SDS011;49208;50.874;6.466;2022-09-30T22:11:25;7.70;;;4.18;;
63114;SDS011;49208;50.874;6.466;2022-09-30T22:13:53;6.03;;;3.60;;
63114;SDS011;49208;50.874;6.466;2022-09-30T22:16:30;7.03;;;3.72;;
63114;SDS011;49208;50.874;6.466;2022-09-30T22:19:00;6.10;;;3.92;;
63114;SDS011;49208;50.874;6.466;2022-09-30T22:21:27;7.72;;;4.10;;
63114;SDS011;49208;50.874;6.466;2022-09-30T22:23:55;5.63;;;3.65;;
63114;SDS011;49208;50.874;6.466;2022-09-30T22:26:21;6.65;;;4.15;;
63114;SDS011;49208;50.874;6.466;2022-09-30T22:28:47;7.38;;;4.40;;
